sensor_id;sensor_type;location;lat;lon;timestamp;temperature;humidity
53146;DHT22;39042;53.150;5.898;2022-08-06T01:29:48;10.30;99.90
53146;DHT22;39042;53.150;5.898;2022-08-06T01:32:17;10.20;99.90
53146;DHT22;39042;53.150;5.898;2022-08-06T01:34:49;10.10;99.90
53146;DHT22;39042;53.150;5.898;2022-08-06T01:37:24;10.10;99.90
53146;DHT22;39042;53.150;5.898;2022-08-06T01:39:55;10.10;99.90
53146;DHT22;39042;53.150;5.898;2022-08-06T01:42:22;10.10;99.90
53146;DHT22;39042;53.150;5.898;2022-08-06T01:44:49;10.00;99.90
53146;DHT22;39042;53.150;5.898;2022-08-06T01:47:16;10.00;99.90
53146;DHT22;39042;53.150;5.898;2022-08-06T03:33:58;9.80;99.90
53146;DHT22;39042;53.150;5.898;2022-08-06T03:36:24;9.90;99.90
53146;DHT22;39042;53.150;5.898;2022-08-06T03:38:53;10.10;99.90
53146;DHT22;39042;53.150;5.898;2022-08-06T03:41:19;10.10;99.90
53146;DHT22;39042;53.150;5.898;2022-08-06T03:43:44;10.10;99.90
53146;DHT22;39042;53.150;5.898;2022-08-06T03:46:10;10.10;99.90
53146;DHT22;39042;53.150;5.898;2022-08-06T03:48:38;10.10;99.90
53146;DHT22;39042;53.150;5.898;2022-08-06T03:51:05;10.00;99.90
53146;DHT22;39042;53.150;5.898;2022-08-06T03:53:31;9.90;99.90
53146;DHT22;39042;53.150;5.898;2022-08-06T03:56:00;9.90;99.90
53146;DHT22;39042;53.150;5.898;2022-08-06T03:58:27;9.90;99.90
53146;DHT22;39042;53.150;5.898;2022-08-06T04:00:55;9.90;99.90
53146;DHT22;39042;53.150;5.898;2022-08-06T04:03:22;9.90;99.90
53146;DHT22;39042;53.150;5.898;2022-08-06T04:05:48;9.90;99.90
53146;DHT22;39042;53.150;5.898;2022-08-06T04:08:14;9.90;99.90
53146;DHT22;39042;53.150;5.898;2022-08-06T04:10:41;9.90;99.90
53146;DHT22;39042;53.150;5.898;2022-08-06T04:13:14;10.00;99.90
53146;DHT22;39042;53.150;5.898;2022-08-06T04:15:40;10.00;99.90
53146;DHT22;39042;53.150;5.898;2022-08-06T04:18:08;10.10;99.90
53146;DHT22;39042;53.150;5.898;2022-08-06T04:20:34;10.10;99.90
53146;DHT22;39042;53.150;5.898;2022-08-06T04:23:00;10.20;99.90
53146;DHT22;39042;53.150;5.898;2022-08-06T04:25:26;10.30;99.90
53146;DHT22;39042;53.150;5.898;2022-08-06T04:27:52;10.30;99.90
53146;DHT22;39042;53.150;5.898;2022-08-06T04:30:20;10.40;99.90
53146;DHT22;39042;53.150;5.898;2022-08-06T06:16:48;14.80;99.90
53146;DHT22;39042;53.150;5.898;2022-08-06T06:19:31;14.90;99.90
53146;DHT22;39042;53.150;5.898;2022-08-06T06:24:31;15.20;99.90
53146;DHT22;39042;53.150;5.898;2022-08-06T06:27:04;15.30;99.90
53146;DHT22;39042;53.150;5.898;2022-08-06T06:34:34;15.70;99.90
53146;DHT22;39042;53.150;5.898;2022-08-06T06:42:35;16.00;99.90
53146;DHT22;39042;53.150;5.898;2022-08-06T06:45:04;16.10;99.90
53146;DHT22;39042;53.150;5.898;2022-08-06T06:47:42;16.20;99.90
53146;DHT22;39042;53.150;5.898;2022-08-06T06:50:11;16.30;99.90
53146;DHT22;39042;53.150;5.898;2022-08-06T13:02:08;21.20;96.90
53146;DHT22;39042;53.150;5.898;2022-08-06T13:04:34;21.30;97.00
53146;DHT22;39042;53.150;5.898;2022-08-06T13:07:00;21.40;96.50
53146;DHT22;39042;53.150;5.898;2022-08-06T13:09:27;21.40;97.10
53146;DHT22;39042;53.150;5.898;2022-08-06T13:11:53;21.50;97.10
53146;DHT22;39042;53.150;5.898;2022-08-06T13:14:19;21.40;96.40
53146;DHT22;39042;53.150;5.898;2022-08-06T13:16:46;21.50;96.40
53146;DHT22;39042;53.150;5.898;2022-08-06T13:19:13;21.50;97.00
53146;DHT22;39042;53.150;5.898;2022-08-06T13:21:40;21.50;95.60
53146;DHT22;39042;53.150;5.898;2022-08-06T13:24:06;21.50;94.70
53146;DHT22;39042;53.150;5.898;2022-08-06T13:26:33;21.50;94.70
53146;DHT22;39042;53.150;5.898;2022-08-06T13:29:03;21.40;96.60
53146;DHT22;39042;53.150;5.898;2022-08-06T13:31:29;21.40;96.50
53146;DHT22;39042;53.150;5.898;2022-08-06T13:34:02;21.40;96.20
53146;DHT22;39042;53.150;5.898;2022-08-06T13:36:28;21.30;94.40
53146;DHT22;39042;53.150;5.898;2022-08-06T13:38:55;21.30;95.90
53146;DHT22;39042;53.150;5.898;2022-08-06T13:41:24;21.40;96.10
53146;DHT22;39042;53.150;5.898;2022-08-06T13:43:50;21.30;95.20
53146;DHT22;39042;53.150;5.898;2022-08-06T13:46:16;21.20;95.50
53146;DHT22;39042;53.150;5.898;2022-08-06T13:48:43;21.00;95.30
53146;DHT22;39042;53.150;5.898;2022-08-06T13:51:09;20.90;95.30
53146;DHT22;39042;53.150;5.898;2022-08-06T13:53:35;20.80;95.90
53146;DHT22;39042;53.150;5.898;2022-08-06T13:56:01;20.70;96.10
53146;DHT22;39042;53.150;5.898;2022-08-06T13:58:27;20.80;95.30
53146;DHT22;39042;53.150;5.898;2022-08-06T14:00:53;20.90;96.20
53146;DHT22;39042;53.150;5.898;2022-08-06T14:03:18;21.00;96.70
53146;DHT22;39042;53.150;5.898;2022-08-06T14:05:44;21.00;95.90
53146;DHT22;39042;53.150;5.898;2022-08-06T14:08:10;21.10;96.10
53146;DHT22;39042;53.150;5.898;2022-08-06T14:10:36;21.00;95.00
53146;DHT22;39042;53.150;5.898;2022-08-06T14:13:03;20.90;94.90
53146;DHT22;39042;53.150;5.898;2022-08-06T14:15:44;20.90;95.90
53146;DHT22;39042;53.150;5.898;2022-08-06T14:18:10;21.10;96.00
53146;DHT22;39042;53.150;5.898;2022-08-06T14:20:36;21.10;96.60
53146;DHT22;39042;53.150;5.898;2022-08-06T14:23:02;21.10;96.00
53146;DHT22;39042;53.150;5.898;2022-08-06T14:25:28;21.30;96.10
53146;DHT22;39042;53.150;5.898;2022-08-06T14:27:53;21.30;94.90
53146;DHT22;39042;53.150;5.898;2022-08-06T14:30:19;21.50;95.30
53146;DHT22;39042;53.150;5.898;2022-08-06T14:32:46;21.60;94.50
53146;DHT22;39042;53.150;5.898;2022-08-06T14:35:12;21.60;93.90
53146;DHT22;39042;53.150;5.898;2022-08-06T14:37:38;21.60;93.80
53146;DHT22;39042;53.150;5.898;2022-08-06T14:40:04;21.40;94.30
53146;DHT22;39042;53.150;5.898;2022-08-06T14:42:30;21.40;95.00
53146;DHT22;39042;53.150;5.898;2022-08-06T14:45:14;21.30;95.00
53146;DHT22;39042;53.150;5.898;2022-08-06T14:47:40;21.40;95.30
53146;DHT22;39042;53.150;5.898;2022-08-06T14:50:06;21.30;95.80
53146;DHT22;39042;53.150;5.898;2022-08-06T14:52:32;21.20;95.60
53146;DHT22;39042;53.150;5.898;2022-08-06T14:54:58;21.10;95.30
53146;DHT22;39042;53.150;5.898;2022-08-06T14:57:25;21.00;95.70
53146;DHT22;39042;53.150;5.898;2022-08-06T14:59:51;20.90;96.20
53146;DHT22;39042;53.150;5.898;2022-08-06T15:02:17;20.90;96.00
53146;DHT22;39042;53.150;5.898;2022-08-06T15:04:43;20.80;96.50
53146;DHT22;39042;53.150;5.898;2022-08-06T15:07:08;20.80;96.90
53146;DHT22;39042;53.150;5.898;2022-08-06T15:09:34;20.80;96.50
53146;DHT22;39042;53.150;5.898;2022-08-06T15:12:00;20.80;96.20
53146;DHT22;39042;53.150;5.898;2022-08-06T15:14:26;20.70;95.60
53146;DHT22;39042;53.150;5.898;2022-08-06T15:16:52;20.70;96.30
53146;DHT22;39042;53.150;5.898;2022-08-06T15:19:18;20.60;96.10
53146;DHT22;39042;53.150;5.898;2022-08-06T15:21:44;20.70;96.40
53146;DHT22;39042;53.150;5.898;2022-08-06T15:24:09;20.70;96.40
53146;DHT22;39042;53.150;5.898;2022-08-06T15:26:35;20.70;96.30
53146;DHT22;39042;53.150;5.898;2022-08-06T15:29:01;20.70;96.10
53146;DHT22;39042;53.150;5.898;2022-08-06T15:31:26;20.80;95.90
53146;DHT22;39042;53.150;5.898;2022-08-06T15:33:52;20.90;95.70
53146;DHT22;39042;53.150;5.898;2022-08-06T15:36:18;20.90;95.50
53146;DHT22;39042;53.150;5.898;2022-08-06T15:38:45;20.90;95.60
53146;DHT22;39042;53.150;5.898;2022-08-06T15:41:11;20.90;95.80
53146;DHT22;39042;53.150;5.898;2022-08-06T15:43:36;20.90;95.80
53146;DHT22;39042;53.150;5.898;2022-08-06T15:46:02;20.90;95.40
53146;DHT22;39042;53.150;5.898;2022-08-06T15:48:28;20.90;95.50
53146;DHT22;39042;53.150;5.898;2022-08-06T15:50:55;20.90;95.50
53146;DHT22;39042;53.150;5.898;2022-08-06T15:53:21;20.90;95.30
53146;DHT22;39042;53.150;5.898;2022-08-06T15:55:47;20.90;95.40
53146;DHT22;39042;53.150;5.898;2022-08-06T15:58:13;20.80;95.30
53146;DHT22;39042;53.150;5.898;2022-08-06T16:00:40;20.90;95.90
53146;DHT22;39042;53.150;5.898;2022-08-06T16:03:07;20.90;95.80
53146;DHT22;39042;53.150;5.898;2022-08-06T16:05:34;20.90;95.90
53146;DHT22;39042;53.150;5.898;2022-08-06T16:08:00;20.90;95.90
53146;DHT22;39042;53.150;5.898;2022-08-06T16:10:26;20.90;95.60
53146;DHT22;39042;53.150;5.898;2022-08-06T16:12:52;20.80;95.50
53146;DHT22;39042;53.150;5.898;2022-08-06T16:15:18;20.80;95.00
53146;DHT22;39042;53.150;5.898;2022-08-06T16:17:44;20.80;95.60
53146;DHT22;39042;53.150;5.898;2022-08-06T16:20:10;20.80;95.40
53146;DHT22;39042;53.150;5.898;2022-08-06T16:22:36;20.80;96.10
53146;DHT22;39042;53.150;5.898;2022-08-06T16:25:01;20.80;95.50
53146;DHT22;39042;53.150;5.898;2022-08-06T16:27:27;20.70;95.40
53146;DHT22;39042;53.150;5.898;2022-08-06T16:29:53;20.60;95.70
53146;DHT22;39042;53.150;5.898;2022-08-06T16:32:19;20.60;96.20
53146;DHT22;39042;53.150;5.898;2022-08-06T16:34:44;20.60;95.60
53146;DHT22;39042;53.150;5.898;2022-08-06T16:37:11;20.60;94.40
53146;DHT22;39042;53.150;5.898;2022-08-06T16:39:36;20.70;94.50
53146;DHT22;39042;53.150;5.898;2022-08-06T16:42:06;20.60;95.00
53146;DHT22;39042;53.150;5.898;2022-08-06T16:44:32;20.70;95.30
53146;DHT22;39042;53.150;5.898;2022-08-06T16:46:58;20.60;95.50
53146;DHT22;39042;53.150;5.898;2022-08-06T16:49:24;20.60;95.50
53146;DHT22;39042;53.150;5.898;2022-08-06T16:51:50;20.60;95.30
53146;DHT22;39042;53.150;5.898;2022-08-06T16:54:16;20.50;95.10
53146;DHT22;39042;53.150;5.898;2022-08-06T16:56:41;20.50;95.50
53146;DHT22;39042;53.150;5.898;2022-08-06T16:59:07;20.40;94.20
53146;DHT22;39042;53.150;5.898;2022-08-06T17:01:36;20.40;95.30
53146;DHT22;39042;53.150;5.898;2022-08-06T17:04:05;20.40;96.10
53146;DHT22;39042;53.150;5.898;2022-08-06T17:06:31;20.40;95.20
53146;DHT22;39042;53.150;5.898;2022-08-06T17:08:58;20.50;95.20
53146;DHT22;39042;53.150;5.898;2022-08-06T17:11:24;20.40;95.50
53146;DHT22;39042;53.150;5.898;2022-08-06T17:13:49;20.40;95.30
53146;DHT22;39042;53.150;5.898;2022-08-06T17:16:15;20.40;94.80
53146;DHT22;39042;53.150;5.898;2022-08-06T17:18:41;20.40;94.80
53146;DHT22;39042;53.150;5.898;2022-08-06T17:21:07;20.50;94.70
53146;DHT22;39042;53.150;5.898;2022-08-06T17:23:32;20.50;93.50
53146;DHT22;39042;53.150;5.898;2022-08-06T17:25:58;20.40;94.50
53146;DHT22;39042;53.150;5.898;2022-08-06T17:28:24;20.40;94.50
53146;DHT22;39042;53.150;5.898;2022-08-06T17:30:49;20.30;96.10
53146;DHT22;39042;53.150;5.898;2022-08-06T17:33:15;20.30;96.20
53146;DHT22;39042;53.150;5.898;2022-08-06T17:35:41;20.20;95.40
53146;DHT22;39042;53.150;5.898;2022-08-06T17:38:07;20.20;96.00
53146;DHT22;39042;53.150;5.898;2022-08-06T17:40:32;20.10;95.70
53146;DHT22;39042;53.150;5.898;2022-08-06T17:43:03;20.00;96.70
53146;DHT22;39042;53.150;5.898;2022-08-06T17:45:32;20.00;96.80
53146;DHT22;39042;53.150;5.898;2022-08-06T17:47:59;19.90;97.20
53146;DHT22;39042;53.150;5.898;2022-08-06T17:50:24;19.90;96.80
53146;DHT22;39042;53.150;5.898;2022-08-06T17:52:50;19.80;97.10
53146;DHT22;39042;53.150;5.898;2022-08-06T17:55:16;19.80;97.60
53146;DHT22;39042;53.150;5.898;2022-08-06T17:57:41;19.70;97.90
53146;DHT22;39042;53.150;5.898;2022-08-06T18:00:07;19.70;97.90
53146;DHT22;39042;53.150;5.898;2022-08-06T18:02:37;19.70;98.20
53146;DHT22;39042;53.150;5.898;2022-08-06T18:05:03;19.70;98.50
53146;DHT22;39042;53.150;5.898;2022-08-06T18:07:29;19.50;98.50
53146;DHT22;39042;53.150;5.898;2022-08-06T18:09:54;19.50;98.60
53146;DHT22;39042;53.150;5.898;2022-08-06T18:12:39;19.40;98.60
53146;DHT22;39042;53.150;5.898;2022-08-06T18:15:05;19.30;98.70
53146;DHT22;39042;53.150;5.898;2022-08-06T18:17:30;19.30;98.90
53146;DHT22;39042;53.150;5.898;2022-08-06T18:19:56;19.20;99.10
53146;DHT22;39042;53.150;5.898;2022-08-06T18:22:22;19.10;99.30
53146;DHT22;39042;53.150;5.898;2022-08-06T18:24:48;19.10;99.90
53146;DHT22;39042;53.150;5.898;2022-08-06T18:27:14;19.00;99.90
53146;DHT22;39042;53.150;5.898;2022-08-06T18:29:39;18.90;99.90
53146;DHT22;39042;53.150;5.898;2022-08-06T18:32:05;18.80;99.90
53146;DHT22;39042;53.150;5.898;2022-08-06T18:34:31;18.70;99.90
53146;DHT22;39042;53.150;5.898;2022-08-06T18:36:57;18.70;99.90
53146;DHT22;39042;53.150;5.898;2022-08-06T18:39:22;18.50;99.90
53146;DHT22;39042;53.150;5.898;2022-08-06T18:41:48;18.50;99.90
53146;DHT22;39042;53.150;5.898;2022-08-06T18:44:14;18.40;99.90
53146;DHT22;39042;53.150;5.898;2022-08-06T18:46:40;18.30;99.90
53146;DHT22;39042;53.150;5.898;2022-08-06T18:49:06;18.20;99.90
53146;DHT22;39042;53.150;5.898;2022-08-06T18:51:31;18.10;99.90
53146;DHT22;39042;53.150;5.898;2022-08-06T18:53:57;18.00;99.90
53146;DHT22;39042;53.150;5.898;2022-08-06T18:56:23;18.00;99.90
53146;DHT22;39042;53.150;5.898;2022-08-06T18:58:48;17.90;99.90
53146;DHT22;39042;53.150;5.898;2022-08-06T19:01:14;17.90;99.90
53146;DHT22;39042;53.150;5.898;2022-08-06T19:03:40;17.70;99.90
53146;DHT22;39042;53.150;5.898;2022-08-06T19:06:06;17.70;99.90
53146;DHT22;39042;53.150;5.898;2022-08-06T19:08:32;17.60;99.90
53146;DHT22;39042;53.150;5.898;2022-08-06T19:10:58;17.50;99.90
53146;DHT22;39042;53.150;5.898;2022-08-06T19:13:23;17.50;99.90
53146;DHT22;39042;53.150;5.898;2022-08-06T19:15:49;17.40;99.90
53146;DHT22;39042;53.150;5.898;2022-08-06T19:18:15;17.40;99.90
53146;DHT22;39042;53.150;5.898;2022-08-06T19:20:41;17.40;99.90
53146;DHT22;39042;53.150;5.898;2022-08-06T19:23:08;17.40;99.90
53146;DHT22;39042;53.150;5.898;2022-08-06T19:25:35;17.40;99.90
53146;DHT22;39042;53.150;5.898;2022-08-06T19:28:01;17.40;99.90
53146;DHT22;39042;53.150;5.898;2022-08-06T19:30:27;17.30;99.90
53146;DHT22;39042;53.150;5.898;2022-08-06T19:32:52;17.30;99.90
53146;DHT22;39042;53.150;5.898;2022-08-06T19:35:18;17.30;99.90
53146;DHT22;39042;53.150;5.898;2022-08-06T19:37:44;17.20;99.90
53146;DHT22;39042;53.150;5.898;2022-08-06T19:40:09;17.20;99.90
53146;DHT22;39042;53.150;5.898;2022-08-06T19:42:54;17.10;99.90
53146;DHT22;39042;53.150;5.898;2022-08-06T19:45:19;17.10;99.90
53146;DHT22;39042;53.150;5.898;2022-08-06T19:47:46;17.10;99.90
53146;DHT22;39042;53.150;5.898;2022-08-06T19:50:12;17.00;99.90
53146;DHT22;39042;53.150;5.898;2022-08-06T19:52:37;17.00;99.90
53146;DHT22;39042;53.150;5.898;2022-08-06T19:55:03;16.90;99.90
53146;DHT22;39042;53.150;5.898;2022-08-06T19:57:29;16.90;99.90
53146;DHT22;39042;53.150;5.898;2022-08-06T19:59:55;16.80;99.90
53146;DHT22;39042;53.150;5.898;2022-08-06T20:02:20;16.80;99.90
53146;DHT22;39042;53.150;5.898;2022-08-06T20:04:46;16.80;99.90
53146;DHT22;39042;53.150;5.898;2022-08-06T20:07:12;16.70;99.90
53146;DHT22;39042;53.150;5.898;2022-08-06T20:09:38;16.70;99.90
53146;DHT22;39042;53.150;5.898;2022-08-06T20:12:04;16.70;99.90
53146;DHT22;39042;53.150;5.898;2022-08-06T20:14:30;16.70;99.90
53146;DHT22;39042;53.150;5.898;2022-08-06T20:16:56;16.60;99.90
53146;DHT22;39042;53.150;5.898;2022-08-06T20:19:22;16.60;99.90
53146;DHT22;39042;53.150;5.898;2022-08-06T20:21:47;16.60;99.90
53146;DHT22;39042;53.150;5.898;2022-08-06T20:24:13;16.60;99.90
53146;DHT22;39042;53.150;5.898;2022-08-06T20:26:39;16.50;99.90
53146;DHT22;39042;53.150;5.898;2022-08-06T20:29:04;16.40;99.90
53146;DHT22;39042;53.150;5.898;2022-08-06T20:31:31;16.40;99.90
53146;DHT22;39042;53.150;5.898;2022-08-06T20:34:01;16.40;99.90
53146;DHT22;39042;53.150;5.898;2022-08-06T20:36:27;16.30;99.90
53146;DHT22;39042;53.150;5.898;2022-08-06T20:38:54;16.30;99.90
53146;DHT22;39042;53.150;5.898;2022-08-06T20:41:20;16.30;99.90
53146;DHT22;39042;53.150;5.898;2022-08-06T20:43:45;16.20;99.90
53146;DHT22;39042;53.150;5.898;2022-08-06T20:46:11;16.20;99.90
53146;DHT22;39042;53.150;5.898;2022-08-06T20:48:37;16.10;99.90
53146;DHT22;39042;53.150;5.898;2022-08-06T20:51:02;16.00;99.90
53146;DHT22;39042;53.150;5.898;2022-08-06T20:53:28;16.00;99.90
53146;DHT22;39042;53.150;5.898;2022-08-06T20:55:57;15.90;99.90
53146;DHT22;39042;53.150;5.898;2022-08-06T20:58:23;15.80;99.90
53146;DHT22;39042;53.150;5.898;2022-08-06T21:00:48;15.60;99.90
53146;DHT22;39042;53.150;5.898;2022-08-06T21:03:14;15.50;99.90
53146;DHT22;39042;53.150;5.898;2022-08-06T21:05:40;15.40;99.90
53146;DHT22;39042;53.150;5.898;2022-08-06T21:08:07;15.30;99.90
53146;DHT22;39042;53.150;5.898;2022-08-06T21:10:33;15.20;99.90
53146;DHT22;39042;53.150;5.898;2022-08-06T21:13:00;15.10;99.90
53146;DHT22;39042;53.150;5.898;2022-08-06T21:15:26;15.00;99.90
53146;DHT22;39042;53.150;5.898;2022-08-06T21:17:52;14.90;99.90
53146;DHT22;39042;53.150;5.898;2022-08-06T21:20:17;14.80;99.90
53146;DHT22;39042;53.150;5.898;2022-08-06T21:22:43;14.70;99.90
53146;DHT22;39042;53.150;5.898;2022-08-06T21:25:09;14.70;99.90
53146;DHT22;39042;53.150;5.898;2022-08-06T21:27:34;14.60;99.90
53146;DHT22;39042;53.150;5.898;2022-08-06T21:30:15;14.50;99.90
53146;DHT22;39042;53.150;5.898;2022-08-06T21:32:41;14.40;99.90
53146;DHT22;39042;53.150;5.898;2022-08-06T21:35:07;14.30;99.90
53146;DHT22;39042;53.150;5.898;2022-08-06T21:37:32;14.30;99.90
53146;DHT22;39042;53.150;5.898;2022-08-06T21:39:58;14.20;99.90
53146;DHT22;39042;53.150;5.898;2022-08-06T21:42:24;14.20;99.90
53146;DHT22;39042;53.150;5.898;2022-08-06T21:44:49;14.10;99.90
53146;DHT22;39042;53.150;5.898;2022-08-06T21:47:15;14.10;99.90
53146;DHT22;39042;53.150;5.898;2022-08-06T21:49:41;14.00;99.90
53146;DHT22;39042;53.150;5.898;2022-08-06T21:52:07;13.90;99.90
53146;DHT22;39042;53.150;5.898;2022-08-06T21:54:33;13.80;99.90
53146;DHT22;39042;53.150;5.898;2022-08-06T21:56:59;13.80;99.90
53146;DHT22;39042;53.150;5.898;2022-08-06T21:59:24;13.70;99.90
53146;DHT22;39042;53.150;5.898;2022-08-06T22:01:50;13.60;99.90
53146;DHT22;39042;53.150;5.898;2022-08-06T22:04:16;13.50;99.90
53146;DHT22;39042;53.150;5.898;2022-08-06T22:06:41;13.40;99.90
53146;DHT22;39042;53.150;5.898;2022-08-06T22:09:07;13.30;99.90
53146;DHT22;39042;53.150;5.898;2022-08-06T22:11:34;13.30;99.90
53146;DHT22;39042;53.150;5.898;2022-08-06T22:14:00;13.30;99.90
53146;DHT22;39042;53.150;5.898;2022-08-06T22:16:28;13.30;99.90
53146;DHT22;39042;53.150;5.898;2022-08-06T22:18:53;13.30;99.90
53146;DHT22;39042;53.150;5.898;2022-08-06T22:21:19;13.20;99.90
53146;DHT22;39042;53.150;5.898;2022-08-06T22:23:45;13.20;99.90
53146;DHT22;39042;53.150;5.898;2022-08-06T22:26:11;13.20;99.90
53146;DHT22;39042;53.150;5.898;2022-08-06T22:28:37;13.10;99.90
53146;DHT22;39042;53.150;5.898;2022-08-06T22:31:02;13.10;99.90
53146;DHT22;39042;53.150;5.898;2022-08-06T22:33:28;13.10;99.90
53146;DHT22;39042;53.150;5.898;2022-08-06T22:35:54;13.10;99.90
53146;DHT22;39042;53.150;5.898;2022-08-06T22:38:20;13.00;99.90
53146;DHT22;39042;53.150;5.898;2022-08-06T22:40:48;12.90;99.90
53146;DHT22;39042;53.150;5.898;2022-08-06T22:43:14;12.90;99.90
53146;DHT22;39042;53.150;5.898;2022-08-06T22:45:41;12.90;99.90
53146;DHT22;39042;53.150;5.898;2022-08-06T22:48:07;12.80;99.90
53146;DHT22;39042;53.150;5.898;2022-08-06T22:50:33;12.80;99.90
53146;DHT22;39042;53.150;5.898;2022-08-06T22:52:59;12.70;99.90
53146;DHT22;39042;53.150;5.898;2022-08-06T22:55:26;12.70;99.90
53146;DHT22;39042;53.150;5.898;2022-08-06T22:57:52;12.70;99.90
53146;DHT22;39042;53.150;5.898;2022-08-06T23:00:19;12.70;99.90
53146;DHT22;39042;53.150;5.898;2022-08-06T23:02:45;12.60;99.90
53146;DHT22;39042;53.150;5.898;2022-08-06T23:05:11;12.60;99.90
53146;DHT22;39042;53.150;5.898;2022-08-06T23:07:37;12.60;99.90
53146;DHT22;39042;53.150;5.898;2022-08-06T23:10:03;12.60;99.90
53146;DHT22;39042;53.150;5.898;2022-08-06T23:12:29;12.50;99.90
53146;DHT22;39042;53.150;5.898;2022-08-06T23:14:55;12.50;99.90
53146;DHT22;39042;53.150;5.898;2022-08-06T23:17:21;12.50;99.90
53146;DHT22;39042;53.150;5.898;2022-08-06T23:19:46;12.50;99.90
53146;DHT22;39042;53.150;5.898;2022-08-06T23:22:12;12.40;99.90
53146;DHT22;39042;53.150;5.898;2022-08-06T23:24:38;12.40;99.90
53146;DHT22;39042;53.150;5.898;2022-08-06T23:27:04;12.40;99.90
53146;DHT22;39042;53.150;5.898;2022-08-06T23:29:31;12.40;99.90
53146;DHT22;39042;53.150;5.898;2022-08-06T23:31:57;12.40;99.90
53146;DHT22;39042;53.150;5.898;2022-08-06T23:34:22;12.40;99.90
53146;DHT22;39042;53.150;5.898;2022-08-06T23:36:48;12.30;99.90
53146;DHT22;39042;53.150;5.898;2022-08-06T23:39:13;12.30;99.90
53146;DHT22;39042;53.150;5.898;2022-08-06T23:41:39;12.30;99.90
53146;DHT22;39042;53.150;5.898;2022-08-06T23:44:06;12.20;99.90
53146;DHT22;39042;53.150;5.898;2022-08-06T23:46:32;12.30;99.90
53146;DHT22;39042;53.150;5.898;2022-08-06T23:48:58;12.30;99.90
53146;DHT22;39042;53.150;5.898;2022-08-06T23:51:23;12.30;99.90
53146;DHT22;39042;53.150;5.898;2022-08-06T23:53:49;12.30;99.90
53146;DHT22;39042;53.150;5.898;2022-08-06T23:56:15;12.20;99.90
53146;DHT22;39042;53.150;5.898;2022-08-06T23:58:41;12.20;99.90
